Maybole, United Kingdom
Current Conditions -  °F | °C
As of 1:50 AM on Tuesday 23 Dec 2014 (Local Time) from EGPK Reporting Station
Light Rain Light Rain  
Wind Chill: 41°   Ceiling: 2800
Heat Index: 46°   Visibility: 5mi
Dew Point: 43°   Wind: 10mph
Humidity: 87%   Direction: 260°W
Pressure: 29.68"   Gusts: NA
Location:  55.36°N, 4.68°W
Report Text: EGPK 230150Z 26009KT 8000 -RA FEW009 SCT018 BKN028 08/06 Q1005 RERA
Loading
Personal Weather Stations






























Interactive Weather Map New forecast layout! Learn more

10-Day Weather Forecast

Advertisements
Track Severe Weather on mobile